Warren, IL (61087)

8:20 AM CST on February 10, 2016 (GMT -0600)
KILSTOCK2 | | Change Station
CLOSE
Current Station
Personal Weather Station
Location: Stockton, IL
Elevation: 959 ft
Nearby Weather Stations

Elev 959 ft 42.40 °N, 89.99 °W | Updated 8 minutes ago

Clear
Clear
5.0 °F
Feels Like -10 °F
N
11.0
Wind Variable Wind from NW
Gusts 17.0 mph

Today
High -- | Low -- °F
--% Chance of Precip.
Yesterday
High -- | Low -- °F
Precip. -- in
Pressure 30.01 in
Visibility 10.0 miles
Clouds Clear
Windchill -10 °F
Dew Point -2 °F
Humidity 72%
Rainfall 0.00 in
Snow Depth Not available.
7:03 AM 5:25 PM
Waxing Crescent, 5% visible
METAR KEFT 101335Z AUTO 30010KT 10SM CLR M15/M19 A3001 RMK AO2
Pressure 30.01 in
Visibility 10.0 miles
Clouds Clear
Windchill -10 °F
Dew Point -2 °F
Humidity 72%
Rainfall 0.00 in
Snow Depth Not available.
7:03 AM 5:25 PM
Waxing Crescent, 5% visible
METAR KEFT 101335Z AUTO 30010KT 10SM CLR M15/M19 A3001 RMK AO2

10-Day Weather Forecast

Almanac

Astronomy

Feb. 10, 2016 Rise Set
Actual Time
Civil Twilight
Nautical Twilight
Astronomical Twilight
Moon
Length of Visible Light
Length of Day
Tomorrow will be .
, % of the Moon is Illuminated

Today's Extremes

State Highs State Lows

Community

WunderPhotos

Upload Photos

1,891,850 photos uploaded!

WunderBlog® & News

Nearby

Air Quality

  Air Quality AQ Index Pollutant
Not available.

Snow Depth

Station Depth Elevation

Earthquake Activity

City Distance Mag. Time & Date
Minimum magnitude displayed is 2.5.

Coastal Water Temperatures

Place Temperature

Stations

Nearby Weather Stations

Station Location Temp. Windchill Dew Point Humidity Wind Precip. Elev Updated Type
                   

Watches & Warnings

There are currently no watches in effect.